Kastav — 9AA6417 — position and weather

sailwx.info

Track history (hours):
 
Tides and Currents Weather Stations Pressure Air Temp Water Temp Dewpoint Dewpoint Depression Visibility Wind Speed Wind Dir Waves Ship Positions

Kastav

Last reported at 2016-Jul-11 23:32 UTC. Time now 2016-Jul-27 07:51 UTC.
Position N 01°58' E 102°14'.
Warning: this ship's position is 15 days out of date.

Length 195 m; draft 11.7 m.

Type: Tanker. MMSI: 238257000.

Date/timePositionNaut miles runAvg speedWind from/ knotsBaromVisibWave heightAir tempDewpointWater temp
2016-Jul-11 23:32N 01°58' E 102°14'1313.1
2016-Jul-11 22:32N 01°51' E 102°26'1612.9
2016-Jul-11 21:16N 01°45' E 102°41'6811.9
2016-Jul-11 15:33N 01°11' E 103°40'9 8.5
2016-Jul-11 14:33N 01°12' E 103°48'1 0.4
2016-Jul-11 12:20N 01°13' E 103°48'0 0.2
2016-Jul-11 11:32N 01°13' E 103°48'0 0.1
2016-Jul-11 10:32N 01°13' E 103°49'0 0.1
2016-Jul-11 09:23N 01°13' E 103°49'0 0.0
2016-Jul-11 08:32N 01°13' E 103°49'0 0.0
2016-Jul-11 07:32N 01°13' E 103°49'0 0.1
2016-Jul-11 06:32N 01°13' E 103°49'0 0.0
2016-Jul-11 04:32N 01°13' E 103°49'0 0.0
2016-Jul-11 02:28N 01°13' E 103°49'0 0.1
2016-Jul-11 01:33N 01°13' E 103°49'0 0.2
2016-Jul-11 00:33N 01°13' E 103°48'5 4.6
2016-Jul-10 23:33N 01°13' E 103°53'6 5.9
2016-Jul-10 22:33N 01°16' E 103°58'4 3.7
2016-Jul-10 21:33N 01°16' E 104°02'  
Track history (hours):
 
Tides and Currents Weather Stations Pressure Air Temp Water Temp Dewpoint Dewpoint Depression Visibility Wind Speed Wind Dir Waves Ship Positions

Kastav

Last reported at 2016-Jul-11 23:32 UTC. Time now 2016-Jul-27 07:51 UTC.
Position N 01°58' E 102°14'.
Warning: this ship's position is 15 days out of date.

Length 195 m; draft 11.7 m.

Type: Tanker. MMSI: 238257000.

Date/timePositionNaut miles runAvg speedWind from/ knotsBaromVisibWave heightAir tempDewpointWater temp
2016-Jul-11 23:32N 01°58' E 102°14'1313.1
2016-Jul-11 22:32N 01°51' E 102°26'1612.9
2016-Jul-11 21:16N 01°45' E 102°41'6811.9
2016-Jul-11 15:33N 01°11' E 103°40'9 8.5
2016-Jul-11 14:33N 01°12' E 103°48'1 0.4
2016-Jul-11 12:20N 01°13' E 103°48'0 0.2
2016-Jul-11 11:32N 01°13' E 103°48'0 0.1
2016-Jul-11 10:32N 01°13' E 103°49'0 0.1
2016-Jul-11 09:23N 01°13' E 103°49'0 0.0
2016-Jul-11 08:32N 01°13' E 103°49'0 0.0
2016-Jul-11 07:32N 01°13' E 103°49'0 0.1
2016-Jul-11 06:32N 01°13' E 103°49'0 0.0
2016-Jul-11 04:32N 01°13' E 103°49'0 0.0
2016-Jul-11 02:28N 01°13' E 103°49'0 0.1
2016-Jul-11 01:33N 01°13' E 103°49'0 0.2
2016-Jul-11 00:33N 01°13' E 103°48'5 4.6
2016-Jul-10 23:33N 01°13' E 103°53'6 5.9
2016-Jul-10 22:33N 01°16' E 103°58'4 3.7
2016-Jul-10 21:33N 01°16' E 104°02'  

Dump ship's entire track history